createdAt,value
2018-04-08T00:01:37.003Z,99954.92
2018-04-08T00:04:05.330Z,99983.98
2018-04-08T00:06:33.698Z,99967.58
2018-04-08T00:09:02.044Z,99978.81
2018-04-08T00:11:30.435Z,99961.17
2018-04-08T00:13:58.768Z,99959.98
2018-04-08T00:16:27.154Z,99956.27
2018-04-08T00:18:55.552Z,99954.06
2018-04-08T00:21:23.904Z,99949.89
2018-04-08T00:23:52.346Z,99957.77
2018-04-08T00:26:20.659Z,99956.16
2018-04-08T00:28:49.001Z,99960.84
2018-04-08T00:31:17.329Z,99953.73
2018-04-08T00:33:45.732Z,99949.28
2018-04-08T00:36:21.219Z,99953.06
2018-04-08T00:38:49.586Z,99947.98
2018-04-08T00:41:17.934Z,99937.52
2018-04-08T00:43:46.288Z,99938.16
2018-04-08T00:46:14.607Z,99933.63
2018-04-08T00:48:42.916Z,99928.58
2018-04-08T00:51:11.301Z,99935.77
2018-04-08T00:53:39.630Z,99928.89
2018-04-08T00:56:07.958Z,99927.95
2018-04-08T00:58:36.396Z,99920.65
2018-04-08T01:01:04.753Z,99922.66
2018-04-08T01:03:33.066Z,99934.47
2018-04-08T01:06:01.440Z,99932.41
2018-04-08T01:08:29.759Z,99931.59
2018-04-08T01:10:58.095Z,99941.61
2018-04-08T01:13:26.491Z,99932.05
2018-04-08T01:15:54.819Z,99934.11
2018-04-08T01:18:23.156Z,99938.49
2018-04-08T01:20:51.496Z,99944.96
2018-04-08T01:23:19.832Z,99939.75
2018-04-08T01:25:48.166Z,99938.45
2018-04-08T01:28:16.519Z,99932.96
2018-04-08T01:30:44.854Z,99929.38
2018-04-08T01:33:13.186Z,99923.01
2018-04-08T01:35:41.542Z,99930.30
2018-04-08T01:38:09.949Z,99931.92
2018-04-08T01:40:38.305Z,99923.23
2018-04-08T01:43:06.650Z,99932.23
2018-04-08T01:45:34.999Z,99926.11
2018-04-08T01:48:03.478Z,99925.28
2018-04-08T01:50:31.799Z,99926.23
2018-04-08T01:53:00.200Z,99918.89
2018-04-08T01:55:28.535Z,99916.40
2018-04-08T01:57:56.958Z,99939.97
2018-04-08T02:00:25.270Z,99911.06
2018-04-08T02:02:53.613Z,99919.70
2018-04-08T02:05:21.952Z,99904.98
2018-04-08T02:07:50.359Z,99899.86
2018-04-08T02:10:18.711Z,99900.69
2018-04-08T02:12:47.043Z,99912.91
2018-04-08T02:15:15.360Z,99910.63
2018-04-08T02:17:43.801Z,99913.92
2018-04-08T02:20:12.125Z,99908.80
2018-04-08T02:22:40.467Z,99896.88
2018-04-08T02:25:08.797Z,99899.59
2018-04-08T02:27:37.113Z,99904.48
2018-04-08T02:30:05.436Z,99914.93
2018-04-08T02:32:33.839Z,99904.36
2018-04-08T02:35:02.187Z,99913.69
2018-04-08T02:37:30.510Z,99896.69
2018-04-08T02:40:02.411Z,99896.99
2018-04-08T02:42:30.753Z,99905.62
2018-04-08T02:44:59.201Z,99907.59
2018-04-08T02:47:27.524Z,99895.87
2018-04-08T02:49:55.896Z,99893.34
2018-04-08T02:52:24.233Z,99896.17
2018-04-08T02:54:52.581Z,99895.41
2018-04-08T02:57:20.911Z,99900.55
2018-04-08T02:59:49.241Z,99894.61
2018-04-08T03:02:17.589Z,99893.41
2018-04-08T03:04:45.974Z,99890.34
2018-04-08T03:07:14.600Z,99887.78
2018-04-08T03:09:42.913Z,99885.65
2018-04-08T03:12:11.240Z,99888.45
2018-04-08T03:14:39.720Z,99892.34
2018-04-08T03:17:08.080Z,99882.70
2018-04-08T03:19:36.403Z,99893.59
2018-04-08T03:22:05.099Z,99885.55
2018-04-08T03:24:33.428Z,99886.89
2018-04-08T03:27:01.762Z,99882.78
2018-04-08T03:29:30.151Z,99882.05
2018-04-08T03:31:58.491Z,99884.23
2018-04-08T03:34:26.850Z,99885.91
2018-04-08T03:36:55.189Z,99878.72
2018-04-08T03:39:23.571Z,99878.44
2018-04-08T03:41:51.892Z,99886.30
2018-04-08T03:44:20.236Z,99883.10
2018-04-08T03:46:48.551Z,99889.15
2018-04-08T03:49:16.886Z,99873.53
2018-04-08T03:51:45.232Z,99881.97
2018-04-08T03:54:13.581Z,99876.85
2018-04-08T03:56:41.925Z,99877.80
2018-04-08T03:59:10.244Z,99873.20
2018-04-08T04:01:38.584Z,99863.64
2018-04-08T04:04:06.924Z,99869.77
2018-04-08T04:06:35.237Z,99868.33
2018-04-08T04:09:03.567Z,99859.38
2018-04-08T04:11:32.668Z,99856.42
2018-04-08T04:14:01.001Z,99854.39
2018-04-08T04:16:29.342Z,99847.33
2018-04-08T04:19:09.558Z,99843.28
2018-04-08T04:21:49.808Z,99841.72
2018-04-08T04:24:30.016Z,99849.75
2018-04-08T04:26:58.357Z,99835.30
2018-04-08T04:29:26.671Z,99840.83
2018-04-08T04:31:55.032Z,99840.31
2018-04-08T04:34:23.442Z,99828.11
2018-04-08T04:36:51.816Z,99833.09
2018-04-08T04:39:20.143Z,99837.75
2018-04-08T04:41:48.487Z,99827.20
2018-04-08T04:44:16.845Z,99837.45
2018-04-08T04:46:45.163Z,99830.61
2018-04-08T04:49:13.510Z,99827.94
2018-04-08T04:51:41.844Z,99830.86
2018-04-08T04:54:10.403Z,99826.94
2018-04-08T04:56:38.748Z,99816.50
2018-04-08T04:59:07.079Z,99819.58
2018-04-08T05:01:35.411Z,99825.73
2018-04-08T05:04:03.792Z,99824.91
2018-04-08T05:06:32.177Z,99819.83
2018-04-08T05:09:00.592Z,99833.70
2018-04-08T05:11:28.909Z,99820.14
2018-04-08T05:13:57.268Z,99817.92
2018-04-08T05:16:25.627Z,99831.00
2018-04-08T05:18:53.976Z,99806.20
2018-04-08T05:21:22.329Z,99807.81
2018-04-08T05:23:50.675Z,99808.30
2018-04-08T05:26:19.091Z,99808.84
2018-04-08T05:28:47.457Z,99801.96
2018-04-08T05:31:15.805Z,99805.27
2018-04-08T05:33:44.163Z,99802.55
2018-04-08T05:36:12.495Z,99806.22
2018-04-08T05:38:40.835Z,99802.58
2018-04-08T05:41:09.229Z,99798.61
2018-04-08T05:43:37.622Z,99805.63
2018-04-08T05:46:06.089Z,99809.45
2018-04-08T05:48:34.748Z,99810.73
2018-04-08T05:51:03.080Z,99821.90
2018-04-08T05:53:31.421Z,99812.56
2018-04-08T05:55:59.766Z,99807.02
2018-04-08T05:58:28.103Z,99797.34
2018-04-08T06:00:56.444Z,99817.64
2018-04-08T06:03:24.901Z,99794.69
2018-04-08T06:05:53.425Z,99791.56
2018-04-08T06:08:21.746Z,99799.45
2018-04-08T06:10:50.148Z,99789.27
2018-04-08T06:13:18.547Z,99802.87
2018-04-08T06:15:46.897Z,99791.39
2018-04-08T06:18:15.225Z,99797.49
2018-04-08T06:20:43.572Z,99795.15
2018-04-08T06:23:12.087Z,99775.41
2018-04-08T06:25:41.627Z,99821.91
2018-04-08T06:30:49.622Z,99809.42
2018-04-08T06:33:18.000Z,99801.05
2018-04-08T06:35:46.407Z,99807.00
2018-04-08T06:38:14.746Z,99805.43
2018-04-08T06:40:43.211Z,99796.34
2018-04-08T06:43:11.561Z,99815.77
2018-04-08T06:45:39.893Z,99807.95
2018-04-08T06:48:08.230Z,99809.84
2018-04-08T06:50:36.555Z,99792.25
2018-04-08T06:53:04.937Z,99797.16
2018-04-08T06:55:33.328Z,99797.53
2018-04-08T06:58:01.874Z,99820.46
2018-04-08T07:00:30.177Z,99780.70
2018-04-08T07:02:58.561Z,99795.63
2018-04-08T07:05:26.916Z,99802.53
2018-04-08T07:07:55.266Z,99781.33
2018-04-08T07:10:23.577Z,99783.62
2018-04-08T07:12:51.931Z,99773.87
2018-04-08T07:15:20.471Z,99773.19
2018-04-08T07:17:48.812Z,99775.73
2018-04-08T07:20:17.127Z,99789.70
2018-04-08T07:22:45.548Z,99777.31
2018-04-08T07:25:13.891Z,99784.64
2018-04-08T07:27:42.270Z,99775.30
2018-04-08T07:30:10.631Z,99777.73
2018-04-08T07:32:39.081Z,99786.03
2018-04-08T07:35:07.441Z,99786.73
2018-04-08T07:37:35.780Z,99782.47
2018-04-08T07:40:04.211Z,99800.53
2018-04-08T07:42:32.648Z,99777.72
2018-04-08T07:45:01.083Z,99780.31
2018-04-08T07:47:29.592Z,99784.80
2018-04-08T07:49:57.959Z,99779.09
2018-04-08T07:52:26.269Z,99783.59
2018-04-08T07:54:54.605Z,99791.06
2018-04-08T07:57:22.979Z,99788.30
2018-04-08T07:59:51.304Z,99782.03
2018-04-08T08:02:19.657Z,99800.65
2018-04-08T08:04:47.984Z,99784.39
2018-04-08T08:07:16.304Z,99790.41
2018-04-08T08:09:44.825Z,99781.40
2018-04-08T08:12:13.162Z,99784.58
2018-04-08T08:14:41.576Z,99783.70
2018-04-08T08:17:09.911Z,99802.71
2018-04-08T08:19:38.269Z,99779.01
2018-04-08T08:22:06.813Z,99785.60
2018-04-08T08:24:35.352Z,99774.42
2018-04-08T08:27:03.786Z,99772.41
2018-04-08T08:29:32.297Z,99781.74
2018-04-08T08:32:00.636Z,99775.95
2018-04-08T08:34:29.166Z,99772.20
2018-04-08T08:36:57.628Z,99783.83
2018-04-08T08:39:26.016Z,99770.20
2018-04-08T08:41:54.325Z,99774.48
2018-04-08T08:44:22.702Z,99766.02
2018-04-08T08:46:51.075Z,99778.11
2018-04-08T08:49:19.442Z,99780.48
2018-04-08T08:51:47.754Z,99791.23
2018-04-08T08:54:16.219Z,99760.38
2018-04-08T08:56:44.844Z,99753.20
2018-04-08T08:59:13.172Z,99754.91
2018-04-08T09:01:41.525Z,99741.19
2018-04-08T09:04:09.878Z,99770.17
2018-04-08T09:06:38.273Z,99747.15
2018-04-08T09:09:06.577Z,99746.68
2018-04-08T09:11:35.019Z,99737.03
2018-04-08T09:14:03.588Z,99754.48
2018-04-08T09:16:31.921Z,99762.52
2018-04-08T09:19:01.617Z,99761.06
2018-04-08T09:21:35.713Z,99767.79
2018-04-08T09:24:05.021Z,99751.45
2018-04-08T09:26:33.426Z,99746.03
2018-04-08T09:29:01.802Z,99742.41
2018-04-08T09:31:30.379Z,99743.56
2018-04-08T09:33:58.935Z,99741.55
2018-04-08T09:36:27.958Z,99729.20
2018-04-08T09:38:56.299Z,99717.69
2018-04-08T09:41:24.712Z,99728.69
2018-04-08T09:43:53.044Z,99745.42
2018-04-08T09:46:21.384Z,99744.93
2018-04-08T09:48:50.034Z,99762.33
2018-04-08T09:51:19.154Z,99736.23
2018-04-08T09:53:47.486Z,99739.22
2018-04-08T09:56:15.818Z,99734.80
2018-04-08T09:58:44.145Z,99739.55
2018-04-08T10:01:27.124Z,99731.56
2018-04-08T10:03:55.687Z,99719.64
2018-04-08T10:06:24.271Z,99724.61
2018-04-08T10:08:52.589Z,99734.83
2018-04-08T10:11:20.996Z,99732.34
2018-04-08T10:13:49.308Z,99715.31
2018-04-08T10:16:17.848Z,99717.84
2018-04-08T10:18:46.454Z,99714.36
2018-04-08T10:21:14.821Z,99716.53
2018-04-08T10:23:43.158Z,99713.30
2018-04-08T10:26:12.334Z,99716.63
2018-04-08T10:28:40.679Z,99711.09
2018-04-08T10:31:09.093Z,99718.61
2018-04-08T10:33:37.573Z,99710.53
2018-04-08T10:36:05.927Z,99713.73
2018-04-08T10:38:34.332Z,99716.66
2018-04-08T10:41:02.681Z,99705.22
2018-04-08T10:43:31.074Z,99711.50
2018-04-08T10:45:59.392Z,99720.52
2018-04-08T10:48:27.735Z,99713.38
2018-04-08T10:50:56.080Z,99706.84
2018-04-08T10:53:24.586Z,99708.75
2018-04-08T10:55:52.998Z,99708.09
2018-04-08T10:58:21.398Z,99703.63
2018-04-08T11:00:49.728Z,99718.89
2018-04-08T11:03:18.069Z,99705.67
2018-04-08T11:05:46.493Z,99703.41
2018-04-08T11:08:14.857Z,99703.84
2018-04-08T11:10:43.188Z,99723.52
2018-04-08T11:13:11.539Z,99698.80
2018-04-08T11:15:39.869Z,99705.83
2018-04-08T11:18:08.248Z,99693.08
2018-04-08T11:20:36.614Z,99684.79
2018-04-08T11:23:04.947Z,99690.38
2018-04-08T11:25:33.327Z,99695.88
2018-04-08T11:28:01.736Z,99692.08
2018-04-08T11:30:30.074Z,99693.28
2018-04-08T11:32:58.673Z,99693.30
2018-04-08T11:35:27.011Z,99694.20
2018-04-08T11:37:55.334Z,99687.72
2018-04-08T11:40:23.661Z,99683.41
2018-04-08T11:42:52.046Z,99700.38
2018-04-08T11:45:20.417Z,99684.45
2018-04-08T11:47:49.078Z,99682.65
2018-04-08T11:50:17.415Z,99678.30
2018-04-08T11:52:45.808Z,99676.92
2018-04-08T11:55:14.191Z,99676.67
2018-04-08T11:57:42.605Z,99681.36
2018-04-08T12:00:10.940Z,99686.63
2018-04-08T12:02:39.270Z,99674.69
2018-04-08T12:05:07.622Z,99665.75
2018-04-08T12:07:35.945Z,99664.20
2018-04-08T12:10:04.296Z,99663.30
2018-04-08T12:12:32.635Z,99654.44
2018-04-08T12:15:01.024Z,99648.23
2018-04-08T12:17:29.469Z,99642.27
2018-04-08T12:19:57.842Z,99646.12
2018-04-08T12:22:26.173Z,99648.06
2018-04-08T12:24:54.641Z,99639.88
2018-04-08T12:27:22.952Z,99640.56
2018-04-08T12:29:51.308Z,99636.69
2018-04-08T12:32:19.692Z,99638.52
2018-04-08T12:34:48.051Z,99646.02
2018-04-08T12:37:16.480Z,99631.38
2018-04-08T12:39:45.734Z,99631.34
2018-04-08T12:42:14.123Z,99630.64
2018-04-08T12:44:42.480Z,99631.84
2018-04-08T12:47:10.854Z,99622.45
2018-04-08T12:49:39.254Z,99626.83
2018-04-08T12:52:07.591Z,99629.05
2018-04-08T12:54:36.136Z,99626.47
2018-04-08T12:57:04.589Z,99624.09
2018-04-08T12:59:32.923Z,99619.75
2018-04-08T13:02:01.508Z,99615.17
2018-04-08T13:04:29.868Z,99610.67
2018-04-08T13:06:58.192Z,99619.77
2018-04-08T13:09:26.525Z,99607.30
2018-04-08T13:11:54.881Z,99607.60
2018-04-08T13:14:23.208Z,99608.83
2018-04-08T13:16:51.561Z,99598.37
2018-04-08T13:19:19.858Z,99580.38
2018-04-08T13:21:48.179Z,99585.82
2018-04-08T13:24:16.606Z,99585.20
2018-04-08T13:26:44.945Z,99586.99
2018-04-08T13:29:13.334Z,99593.45
2018-04-08T13:31:41.625Z,99592.38
2018-04-08T13:34:10.016Z,99581.84
2018-04-08T13:36:38.348Z,99574.47
2018-04-08T13:39:06.738Z,99567.86
2018-04-08T13:41:35.097Z,99568.05
2018-04-08T13:44:03.432Z,99573.96
2018-04-08T13:46:31.771Z,99573.34
2018-04-08T13:49:00.245Z,99569.84
2018-04-08T13:51:28.565Z,99560.98
2018-04-08T13:53:56.969Z,99568.44
2018-04-08T13:56:25.284Z,99553.95
2018-04-08T13:58:53.753Z,99542.90
2018-04-08T14:01:22.079Z,99540.44
2018-04-08T14:03:50.508Z,99528.80
2018-04-08T14:06:18.858Z,99535.96
2018-04-08T14:08:47.219Z,99543.31
2018-04-08T14:11:15.571Z,99543.31
2018-04-08T14:13:43.954Z,99536.80
2018-04-08T14:16:12.289Z,99527.11
2018-04-08T14:18:40.626Z,99522.34
2018-04-08T14:21:08.966Z,99525.67
2018-04-08T14:23:37.296Z,99518.00
2018-04-08T14:26:05.723Z,99512.45
2018-04-08T14:28:34.064Z,99509.45
2018-04-08T14:31:02.398Z,99502.60
2018-04-08T14:33:30.737Z,99499.51
2018-04-08T14:35:59.085Z,99503.88
2018-04-08T14:38:27.425Z,99507.84
2018-04-08T14:40:55.782Z,99506.47
2018-04-08T14:43:24.110Z,99494.84
2018-04-08T14:45:52.449Z,99485.77
2018-04-08T14:48:20.762Z,99491.68
2018-04-08T14:50:49.128Z,99482.05
2018-04-08T14:53:17.525Z,99475.63
2018-04-08T14:55:45.886Z,99475.38
2018-04-08T14:58:14.260Z,99467.33
2018-04-08T15:00:42.612Z,99468.78
2018-04-08T15:03:11.510Z,99465.64
2018-04-08T15:05:39.844Z,99465.52
2018-04-08T15:08:08.197Z,99458.83
2018-04-08T15:10:36.582Z,99465.08
2018-04-08T15:13:04.852Z,99453.52
2018-04-08T15:15:33.210Z,99470.80
2018-04-08T15:18:01.541Z,99448.08
2018-04-08T15:20:29.873Z,99454.11
2018-04-08T15:22:58.220Z,99450.23
2018-04-08T15:25:26.527Z,99460.81
2018-04-08T15:27:54.880Z,99451.50
2018-04-08T15:30:23.507Z,99439.85
2018-04-08T15:32:51.884Z,99445.14
2018-04-08T15:35:20.252Z,99443.56
2018-04-08T15:37:48.732Z,99437.03
2018-04-08T15:40:17.260Z,99433.59
2018-04-08T15:42:45.585Z,99435.53
2018-04-08T15:45:13.900Z,99437.98
2018-04-08T15:47:42.246Z,99450.38
2018-04-08T15:50:10.548Z,99440.89
2018-04-08T15:52:38.888Z,99438.16
2018-04-08T15:55:07.201Z,99440.11
2018-04-08T15:57:35.564Z,99436.66
2018-04-08T16:00:03.884Z,99439.30
2018-04-08T16:02:32.222Z,99443.75
2018-04-08T16:05:00.547Z,99444.41
2018-04-08T16:07:28.905Z,99443.52
2018-04-08T16:09:57.303Z,99435.20
2018-04-08T16:12:25.663Z,99430.19
2018-04-08T16:14:53.995Z,99434.16
2018-04-08T16:17:22.463Z,99434.02
2018-04-08T16:19:50.807Z,99432.81
2018-04-08T16:22:19.154Z,99430.73
2018-04-08T16:24:47.491Z,99433.52
2018-04-08T16:27:15.856Z,99434.86
2018-04-08T16:29:44.370Z,99432.74
2018-04-08T16:32:12.684Z,99436.44
2018-04-08T16:34:41.104Z,99433.47
2018-04-08T16:37:09.424Z,99432.96
2018-04-08T16:39:37.789Z,99434.52
2018-04-08T16:42:06.557Z,99433.17
2018-04-08T16:44:34.880Z,99427.09
2018-04-08T16:47:03.210Z,99426.12
2018-04-08T16:49:31.569Z,99434.16
2018-04-08T16:51:59.973Z,99423.06
2018-04-08T16:54:28.302Z,99419.23
2018-04-08T16:56:56.628Z,99417.70
2018-04-08T16:59:24.941Z,99404.35
2018-04-08T17:01:53.295Z,99409.72
2018-04-08T17:04:21.612Z,99401.44
2018-04-08T17:06:49.957Z,99402.45
2018-04-08T17:09:18.282Z,99396.10
2018-04-08T17:11:46.696Z,99385.41
2018-04-08T17:14:15.047Z,99381.61
2018-04-08T17:16:43.499Z,99385.72
2018-04-08T17:19:11.824Z,99388.00
2018-04-08T17:21:40.159Z,99392.38
2018-04-08T17:24:08.565Z,99393.13
2018-04-08T17:26:36.917Z,99398.15
2018-04-08T17:29:05.300Z,99394.48
2018-04-08T17:31:33.824Z,99391.21
2018-04-08T17:34:02.209Z,99392.06
2018-04-08T17:36:30.714Z,99391.73
2018-04-08T17:38:59.064Z,99390.23
2018-04-08T17:41:27.416Z,99392.54
2018-04-08T17:43:56.521Z,99392.10
2018-04-08T17:46:24.897Z,99392.41
2018-04-08T17:48:53.294Z,99396.82
2018-04-08T17:51:21.651Z,99391.73
2018-04-08T17:53:50.073Z,99392.80
2018-04-08T17:56:18.402Z,99393.02
2018-04-08T17:58:46.756Z,99393.72
2018-04-08T18:01:15.091Z,99400.02
2018-04-08T18:03:43.441Z,99400.65
2018-04-08T18:06:11.844Z,99399.66
2018-04-08T18:08:40.198Z,99409.76
2018-04-08T18:11:08.524Z,99401.55
2018-04-08T18:13:36.871Z,99411.94
2018-04-08T18:16:05.210Z,99412.42
2018-04-08T18:18:33.575Z,99411.23
2018-04-08T18:21:01.929Z,99419.36
2018-04-08T18:23:30.268Z,99425.22
2018-04-08T18:25:58.600Z,99430.05
2018-04-08T18:28:26.968Z,99432.63
2018-04-08T18:30:55.387Z,99434.38
2018-04-08T18:33:23.829Z,99441.07
2018-04-08T18:35:52.198Z,99449.16
2018-04-08T18:38:20.528Z,99442.76
2018-04-08T18:40:48.944Z,99448.64
2018-04-08T18:43:17.416Z,99451.86
2018-04-08T18:45:45.804Z,99451.06
2018-04-08T18:48:14.312Z,99456.83
2018-04-08T18:50:42.710Z,99459.14
2018-04-08T18:53:11.104Z,99466.68
2018-04-08T18:55:39.434Z,99466.74
2018-04-08T18:58:07.781Z,99464.52
2018-04-08T19:00:36.123Z,99462.11
2018-04-08T19:03:04.799Z,99459.78
2018-04-08T19:05:33.137Z,99463.41
2018-04-08T19:08:01.492Z,99459.66
2018-04-08T19:10:29.843Z,99457.17
2018-04-08T19:12:58.180Z,99462.20
2018-04-08T19:15:26.558Z,99456.27
2018-04-08T19:18:00.665Z,99455.09
2018-04-08T19:20:30.623Z,99462.47
2018-04-08T19:22:58.972Z,99451.33
2018-04-08T19:25:27.307Z,99456.02
2018-04-08T19:27:55.677Z,99456.59
2018-04-08T19:30:24.099Z,99452.92
2018-04-08T19:32:52.396Z,99445.33
2018-04-08T19:35:20.755Z,99451.99
2018-04-08T19:37:49.085Z,99449.14
2018-04-08T19:40:18.338Z,99447.20
2018-04-08T19:42:46.741Z,99446.09
2018-04-08T19:45:15.329Z,99451.38
2018-04-08T19:47:43.648Z,99450.11
2018-04-08T19:50:12.013Z,99441.62
2018-04-08T19:52:40.420Z,99438.65
2018-04-08T19:55:08.736Z,99436.84
2018-04-08T19:57:37.087Z,99428.23
2018-04-08T20:00:05.466Z,99425.48
2018-04-08T20:02:33.818Z,99422.21
2018-04-08T20:05:02.153Z,99424.13
2018-04-08T20:07:30.567Z,99414.28
2018-04-08T20:09:59.356Z,99407.88
2018-04-08T20:12:27.751Z,99412.74
2018-04-08T20:14:56.179Z,99416.94
2018-04-08T20:17:24.587Z,99417.62
2018-04-08T20:19:52.908Z,99410.48
2018-04-08T20:22:21.248Z,99402.39
2018-04-08T20:24:49.555Z,99401.94
2018-04-08T20:27:18.006Z,99401.31
2018-04-08T20:29:46.337Z,99397.84
2018-04-08T20:32:14.765Z,99391.09
2018-04-08T20:34:43.119Z,99393.56
2018-04-08T20:37:11.446Z,99396.69
2018-04-08T20:39:39.778Z,99387.36
2018-04-08T20:42:08.103Z,99391.14
2018-04-08T20:44:36.529Z,99386.86
2018-04-08T20:47:04.869Z,99386.66
2018-04-08T20:49:33.221Z,99388.56
2018-04-08T20:52:02.029Z,99393.64
2018-04-08T20:54:30.667Z,99398.81
2018-04-08T20:56:58.988Z,99398.66
2018-04-08T20:59:27.346Z,99394.20
2018-04-08T21:01:55.695Z,99402.08
2018-04-08T21:04:24.045Z,99404.33
2018-04-08T21:06:52.416Z,99406.98
2018-04-08T21:09:20.791Z,99399.17
2018-04-08T21:11:49.127Z,99397.88
2018-04-08T21:14:17.453Z,99398.61
2018-04-08T21:16:45.765Z,99389.86
2018-04-08T21:19:14.154Z,99387.62
2018-04-08T21:21:42.490Z,99393.61
2018-04-08T21:24:10.815Z,99393.41
2018-04-08T21:26:39.222Z,99400.94
2018-04-08T21:29:07.679Z,99406.37
2018-04-08T21:31:35.984Z,99409.28
2018-04-08T21:34:04.393Z,99412.21
2018-04-08T21:36:32.701Z,99405.75
2018-04-08T21:39:01.142Z,99401.86
2018-04-08T21:41:29.521Z,99407.25
2018-04-08T21:43:57.844Z,99400.84
2018-04-08T21:46:26.163Z,99401.44
2018-04-08T21:48:54.554Z,99404.19
2018-04-08T21:51:22.992Z,99408.27
2018-04-08T21:53:51.317Z,99408.94
2018-04-08T21:56:19.662Z,99397.64
2018-04-08T21:58:48.115Z,99402.99
2018-04-08T22:01:16.488Z,99405.52
2018-04-08T22:03:44.876Z,99406.84
2018-04-08T22:06:13.272Z,99400.60
2018-04-08T22:08:41.614Z,99399.46
2018-04-08T22:11:09.959Z,99399.89
2018-04-08T22:13:38.258Z,99402.61
2018-04-08T22:16:06.711Z,99408.16
2018-04-08T22:18:35.061Z,99404.70
2018-04-08T22:21:03.459Z,99404.22
2018-04-08T22:23:31.836Z,99405.13
2018-04-08T22:26:00.228Z,99407.33
2018-04-08T22:28:28.644Z,99415.59
2018-04-08T22:30:56.973Z,99418.96
2018-04-08T22:33:25.288Z,99415.97
2018-04-08T22:35:53.980Z,99415.08
2018-04-08T22:38:22.304Z,99417.67
2018-04-08T22:40:50.684Z,99409.84
2018-04-08T22:43:19.017Z,99413.61
2018-04-08T22:45:47.406Z,99416.73
2018-04-08T22:48:15.721Z,99416.38
2018-04-08T22:50:44.034Z,99416.84
2018-04-08T22:53:12.428Z,99427.16
2018-04-08T22:55:40.855Z,99423.19
2018-04-08T22:58:09.195Z,99425.03
2018-04-08T23:00:37.563Z,99421.91
2018-04-08T23:03:05.883Z,99422.63
2018-04-08T23:05:34.216Z,99419.38
2018-04-08T23:08:02.545Z,99417.45
2018-04-08T23:10:30.883Z,99413.64
2018-04-08T23:12:59.219Z,99415.16
2018-04-08T23:15:27.540Z,99411.39
2018-04-08T23:17:55.905Z,99414.92
2018-04-08T23:20:24.217Z,99409.37
2018-04-08T23:22:52.772Z,99410.13
2018-04-08T23:25:21.098Z,99407.94
2018-04-08T23:27:49.529Z,99406.87
2018-04-08T23:30:17.853Z,99400.69
2018-04-08T23:32:46.212Z,99411.49
2018-04-08T23:35:14.545Z,99403.91
2018-04-08T23:37:42.879Z,99401.55
2018-04-08T23:40:11.244Z,99402.64
2018-04-08T23:42:39.602Z,99402.14
2018-04-08T23:45:07.940Z,99400.44
2018-04-08T23:47:36.318Z,99404.22
2018-04-08T23:50:04.665Z,99405.71
2018-04-08T23:52:32.973Z,99401.10
2018-04-08T23:55:01.324Z,99400.52
2018-04-08T23:57:29.654Z,99394.14
2018-04-08T23:59:57.965Z,99394.42
